createdAt,value
2022-08-21T00:03:20.562Z,3.72
2022-08-21T00:08:42.832Z,3.50
2022-08-21T00:14:06.271Z,3.75
2022-08-21T00:19:28.687Z,3.28
2022-08-21T00:24:50.507Z,3.83
2022-08-21T00:30:17.713Z,3.30
2022-08-21T00:35:45.097Z,3.80
2022-08-21T00:41:36.470Z,3.50
2022-08-21T00:46:50.690Z,4.20
2022-08-21T00:52:20.259Z,3.80
2022-08-21T00:57:48.295Z,3.40
2022-08-21T01:03:15.293Z,3.55
2022-08-21T01:08:37.209Z,3.30
2022-08-21T01:14:05.747Z,3.35
2022-08-21T01:19:27.939Z,4.20
2022-08-21T01:24:49.864Z,3.70
2022-08-21T01:30:21.768Z,3.95
2022-08-21T01:35:43.625Z,4.03
2022-08-21T01:41:05.446Z,3.75
2022-08-21T01:46:27.562Z,4.10
2022-08-21T01:51:49.451Z,3.90
2022-08-21T01:57:12.574Z,3.92
2022-08-21T02:02:34.394Z,3.80
2022-08-21T02:07:56.315Z,4.05
2022-08-21T02:13:18.925Z,3.75
2022-08-21T02:18:40.780Z,3.88
2022-08-21T02:24:02.989Z,4.03
2022-08-21T02:29:24.834Z,4.00
2022-08-21T02:34:46.795Z,4.13
2022-08-21T02:40:09.137Z,4.28
2022-08-21T02:45:31.806Z,4.38
2022-08-21T02:51:00.180Z,4.45
2022-08-21T02:56:22.419Z,4.35
2022-08-21T03:01:44.431Z,4.18
2022-08-21T03:07:06.607Z,3.75
2022-08-21T03:12:33.096Z,4.07
2022-08-21T03:17:54.999Z,4.20
2022-08-21T03:23:19.104Z,5.78
2022-08-21T03:28:41.512Z,4.47
2022-08-21T03:34:03.384Z,4.50
2022-08-21T03:39:25.276Z,4.07
2022-08-21T03:44:47.143Z,4.63
2022-08-21T03:50:09.375Z,5.03
2022-08-21T03:55:31.460Z,4.28
2022-08-21T04:00:55.937Z,4.03
2022-08-21T04:06:17.757Z,4.82
2022-08-21T04:11:39.631Z,4.22
2022-08-21T04:17:01.565Z,3.75
2022-08-21T04:22:23.393Z,3.80
2022-08-21T04:27:45.511Z,3.80
2022-08-21T04:33:07.367Z,3.85
2022-08-21T04:38:36.487Z,4.32
2022-08-21T04:43:59.669Z,3.60
2022-08-21T04:49:21.481Z,3.70
2022-08-21T04:54:45.743Z,3.83
2022-08-21T05:00:12.346Z,3.45
2022-08-21T05:05:36.221Z,3.40
2022-08-21T05:11:00.539Z,3.63
2022-08-21T05:16:36.991Z,3.00
2022-08-21T05:21:59.676Z,3.28
2022-08-21T05:27:21.528Z,2.97
2022-08-21T05:32:45.601Z,2.67
2022-08-21T05:38:07.812Z,2.70
2022-08-21T05:43:40.088Z,2.92
2022-08-21T05:49:01.919Z,3.30
2022-08-21T05:54:23.759Z,2.90
2022-08-21T05:59:45.581Z,2.92
2022-08-21T06:05:07.921Z,2.83
2022-08-21T06:10:31.168Z,2.90
2022-08-21T06:16:22.363Z,3.90
2022-08-21T06:21:44.203Z,2.90
2022-08-21T06:27:07.643Z,2.90
2022-08-21T06:32:31.313Z,3.30
2022-08-21T06:37:53.143Z,2.80
2022-08-21T06:43:17.202Z,3.03
2022-08-21T06:48:39.225Z,3.03
2022-08-21T06:54:01.071Z,2.55
2022-08-21T06:59:22.962Z,2.85
2022-08-21T07:04:44.917Z,2.83
2022-08-21T07:10:07.065Z,2.60
2022-08-21T07:15:30.849Z,2.80
2022-08-21T07:20:52.934Z,2.78
2022-08-21T07:26:16.943Z,3.08
2022-08-21T07:31:38.785Z,2.38
2022-08-21T07:37:00.593Z,2.95
2022-08-21T07:42:28.260Z,2.72
2022-08-21T07:47:53.032Z,2.70
2022-08-21T07:53:18.690Z,2.78
2022-08-21T07:58:40.494Z,2.92
2022-08-21T08:04:02.476Z,2.65
2022-08-21T08:09:24.332Z,3.00
2022-08-21T08:14:46.140Z,3.28
2022-08-21T08:20:09.986Z,2.90
2022-08-21T08:31:00.236Z,2.75
2022-08-21T08:36:33.640Z,3.10
2022-08-21T08:42:32.850Z,2.83
2022-08-21T08:48:03.558Z,2.50
2022-08-21T08:53:34.064Z,2.40
2022-08-21T08:59:02.766Z,2.65
2022-08-21T09:04:28.044Z,2.72
2022-08-21T09:10:12.552Z,3.20
2022-08-21T09:15:47.756Z,3.10
2022-08-21T09:21:27.572Z,2.83
2022-08-21T09:26:58.330Z,3.00
2022-08-21T09:32:39.938Z,3.00
2022-08-21T09:38:05.767Z,2.95
2022-08-21T09:43:27.957Z,2.28
2022-08-21T09:48:52.608Z,2.97
2022-08-21T09:54:19.062Z,2.70
2022-08-21T09:59:41.683Z,2.97
2022-08-21T10:05:16.638Z,2.72
2022-08-21T10:10:38.564Z,2.77
2022-08-21T10:16:27.707Z,2.30
2022-08-21T10:22:03.315Z,2.45
2022-08-21T10:27:46.781Z,2.83
2022-08-21T10:33:11.563Z,2.10
2022-08-21T10:38:52.700Z,2.60
2022-08-21T10:44:41.520Z,2.55
2022-08-21T10:50:21.672Z,2.67
2022-08-21T10:56:05.938Z,2.40
2022-08-21T11:01:45.875Z,2.60
2022-08-21T11:07:23.312Z,2.25
2022-08-21T11:12:56.047Z,2.00
2022-08-21T11:18:33.277Z,2.30
2022-08-21T11:24:10.173Z,2.40
2022-08-21T11:29:41.597Z,2.20
2022-08-21T11:35:21.445Z,2.35
2022-08-21T11:41:06.373Z,2.22
2022-08-21T11:47:06.128Z,2.37
2022-08-21T11:53:10.129Z,2.22
2022-08-21T11:58:43.942Z,2.25
2022-08-21T12:04:23.255Z,2.33
2022-08-21T12:09:56.132Z,2.42
2022-08-21T12:15:21.009Z,1.92
2022-08-21T12:21:01.539Z,2.27
2022-08-21T12:26:36.969Z,2.40
2022-08-21T12:32:02.235Z,2.00
2022-08-21T12:37:43.742Z,2.40
2022-08-21T12:43:12.708Z,2.47
2022-08-21T12:48:43.732Z,2.08
2022-08-21T12:54:05.556Z,2.47
2022-08-21T12:59:27.938Z,2.47
2022-08-21T13:04:51.122Z,2.20
2022-08-21T13:10:33.744Z,2.30
2022-08-21T13:16:01.380Z,2.38
2022-08-21T13:21:30.240Z,2.60
2022-08-21T13:26:53.113Z,2.45
2022-08-21T13:32:26.563Z,2.15
2022-08-21T13:37:50.575Z,2.13
2022-08-21T13:43:19.949Z,2.00
2022-08-21T13:48:43.767Z,2.33
2022-08-21T13:54:29.882Z,2.53
2022-08-21T13:59:51.930Z,2.30
2022-08-21T14:05:23.552Z,2.10
2022-08-21T14:10:56.060Z,2.20
2022-08-21T14:16:27.299Z,2.20
2022-08-21T14:21:49.368Z,2.38
2022-08-21T14:27:11.339Z,1.83
2022-08-21T14:32:44.922Z,2.10
2022-08-21T14:38:19.480Z,2.10
2022-08-21T14:43:41.307Z,2.00
2022-08-21T14:49:04.798Z,1.73
2022-08-21T14:54:31.220Z,1.63
2022-08-21T14:59:53.988Z,1.85
2022-08-21T15:05:16.522Z,2.25
2022-08-21T15:11:10.659Z,1.88
2022-08-21T15:16:31.467Z,2.20
2022-08-21T15:21:53.412Z,1.83
2022-08-21T15:27:17.593Z,1.77
2022-08-21T15:32:39.524Z,2.10
2022-08-21T15:38:01.504Z,2.10
2022-08-21T15:43:30.170Z,2.67
2022-08-21T15:48:54.431Z,3.47
2022-08-21T15:54:19.707Z,2.70
2022-08-21T15:59:46.114Z,2.60
2022-08-21T16:05:08.533Z,2.10
2022-08-21T16:10:30.426Z,2.95
2022-08-21T16:15:53.223Z,2.95
2022-08-21T16:21:15.327Z,2.88
2022-08-21T16:26:37.480Z,3.20
2022-08-21T16:31:59.401Z,2.97
2022-08-21T16:37:24.022Z,2.80
2022-08-21T16:42:46.416Z,3.30
2022-08-21T16:48:08.253Z,3.17
2022-08-21T16:53:30.128Z,2.83
2022-08-21T16:58:55.321Z,3.10
2022-08-21T17:04:17.130Z,3.30
2022-08-21T17:09:39.028Z,2.72
2022-08-21T17:15:21.590Z,2.88
2022-08-21T17:20:43.774Z,3.22
2022-08-21T17:26:05.685Z,3.08
2022-08-21T17:31:33.426Z,3.63
2022-08-21T17:36:55.586Z,3.25
2022-08-21T17:42:17.587Z,3.35
2022-08-21T17:47:39.598Z,3.47
2022-08-21T17:53:01.897Z,4.00
2022-08-21T17:58:23.800Z,3.78
2022-08-21T18:03:45.683Z,3.88
2022-08-21T18:09:08.211Z,3.42
2022-08-21T18:14:34.290Z,3.53
2022-08-21T18:19:56.436Z,6.47
2022-08-21T18:25:18.592Z,3.90
2022-08-21T18:30:42.452Z,4.05
2022-08-21T18:36:05.030Z,3.78
2022-08-21T18:41:26.873Z,3.40
2022-08-21T18:46:54.271Z,3.42
2022-08-21T18:52:17.718Z,4.03
2022-08-21T18:57:45.860Z,4.13
2022-08-21T19:03:08.523Z,4.72
2022-08-21T19:08:31.536Z,4.78
2022-08-21T19:13:53.773Z,5.88
2022-08-21T19:19:16.428Z,4.40
2022-08-21T19:24:39.643Z,4.80
2022-08-21T19:30:13.468Z,4.20
2022-08-21T19:35:53.698Z,4.30
2022-08-21T19:41:17.281Z,4.68
2022-08-21T19:46:41.907Z,4.45
2022-08-21T19:52:12.908Z,4.75
2022-08-21T19:57:37.885Z,4.13
2022-08-21T20:02:59.959Z,4.60
2022-08-21T20:08:22.503Z,4.15
2022-08-21T20:13:50.023Z,4.63
2022-08-21T20:19:12.045Z,4.97
2022-08-21T20:24:34.135Z,4.88
2022-08-21T20:29:56.046Z,4.68
2022-08-21T20:35:18.041Z,4.60
2022-08-21T20:40:40.540Z,4.78
2022-08-21T20:46:03.378Z,5.05
2022-08-21T20:51:31.470Z,5.18
2022-08-21T20:57:03.788Z,5.63
2022-08-21T21:02:38.588Z,4.80
2022-08-21T21:08:02.704Z,5.30
2022-08-21T21:13:32.736Z,5.57
2022-08-21T21:19:06.572Z,5.30
2022-08-21T21:24:41.612Z,5.60
2022-08-21T21:30:14.455Z,5.50
2022-08-21T21:35:49.171Z,5.35
2022-08-21T21:41:14.083Z,5.68
2022-08-21T21:46:54.730Z,6.13
2022-08-21T21:52:35.038Z,5.72
2022-08-21T22:04:08.046Z,5.63
2022-08-21T22:15:50.210Z,5.57
2022-08-21T22:21:22.445Z,5.65
2022-08-21T22:26:52.007Z,5.75
2022-08-21T22:32:22.950Z,6.57
2022-08-21T22:37:46.644Z,6.30
2022-08-21T22:43:15.117Z,6.07
2022-08-21T22:48:50.612Z,5.43
2022-08-21T22:54:22.155Z,5.97
2022-08-21T22:59:58.416Z,6.00
2022-08-21T23:05:30.709Z,6.70
2022-08-21T23:11:06.025Z,6.30
2022-08-21T23:17:00.913Z,7.10
2022-08-21T23:22:49.056Z,7.20
2022-08-21T23:28:25.993Z,6.68
2022-08-21T23:34:00.644Z,7.63
2022-08-21T23:39:53.193Z,6.80
2022-08-21T23:45:38.413Z,6.60
2022-08-21T23:51:11.325Z,7.65
2022-08-21T23:56:55.417Z,7.35
